EFKE/KEM METAR and TAF weather

Enter ICAO airport designator
Station Type Date Time Source
EFKE METAR 2022/06/30 01:50 UTC NOAA

EFKE 300150Z 13003KT CAVOK 18/16 Q1020


Station Type Date Time Source
EFKE Decoded METAR 2022/06/30 01:50 UTC NOAA

Kemi, Finland (EFKE) 65-47N 024-35E
Jun 29, 2022 - 09:50 PM EDT / 2022.06.30 0150 UTC
Wind: from the SE (130 degrees) at 3 MPH (3 KT):0
Visibility: greater than 7 mile(s):0
Temperature: 64 F (18 C)
Dew Point: 60 F (16 C)
Relative Humidity: 88%
Pressure (altimeter): 30.12 in. Hg (1020 hPa)
ob: EFKE 300150Z 13003KT CAVOK 18/16 Q1020
cycle: 2

Station Type Date Time Source
EFKE TAF 2015/01/12 15:42 UTC NOAA

TAF EFKE 121433Z 1215/1312 03006KT CAVOK
BECMG 1300/1302 9999 BKN015
FM130400 07008KT 9999 SCT014 BKN018
TEMPO 1304/1312 7000 -SN

Example: see airport list